createdAt,value
2018-01-11T00:02:13.852Z,8.07
2018-01-11T00:04:41.462Z,8.30
2018-01-11T00:07:09.202Z,6.50
2018-01-11T00:09:36.924Z,8.43
2018-01-11T00:12:04.506Z,8.47
2018-01-11T00:14:32.118Z,6.83
2018-01-11T00:16:59.738Z,6.40
2018-01-11T00:19:27.358Z,7.10
2018-01-11T00:21:54.982Z,6.50
2018-01-11T00:24:22.594Z,6.60
2018-01-11T00:26:50.202Z,7.67
2018-01-11T00:29:17.798Z,8.13
2018-01-11T00:31:45.387Z,8.70
2018-01-11T00:34:12.990Z,6.20
2018-01-11T00:36:40.582Z,10.33
2018-01-11T00:39:08.198Z,7.73
2018-01-11T00:41:35.782Z,8.37
2018-01-11T00:44:03.394Z,8.67
2018-01-11T00:46:30.986Z,6.67
2018-01-11T00:48:58.595Z,8.23
2018-01-11T00:51:26.206Z,8.33
2018-01-11T00:53:53.824Z,6.70
2018-01-11T00:56:21.401Z,8.60
2018-01-11T00:58:49.020Z,7.53
2018-01-11T01:01:16.614Z,7.80
2018-01-11T01:03:44.230Z,9.13
2018-01-11T01:06:11.838Z,10.13
2018-01-11T01:08:39.457Z,8.50
2018-01-11T01:11:07.074Z,9.30
2018-01-11T01:13:34.717Z,7.77
2018-01-11T01:16:02.294Z,6.50
2018-01-11T01:18:29.882Z,8.00
2018-01-11T01:20:57.553Z,6.77
2018-01-11T01:23:25.169Z,6.77
2018-01-11T01:25:52.785Z,6.80
2018-01-11T01:28:20.429Z,7.87
2018-01-11T01:30:48.016Z,7.63
2018-01-11T01:33:15.654Z,7.40
2018-01-11T01:35:43.246Z,7.03
2018-01-11T01:38:10.883Z,8.10
2018-01-11T01:40:38.458Z,8.97
2018-01-11T01:43:06.085Z,7.20
2018-01-11T01:45:33.686Z,7.30
2018-01-11T01:48:01.439Z,8.97
2018-01-11T01:50:29.077Z,9.50
2018-01-11T01:52:56.676Z,8.60
2018-01-11T01:55:24.258Z,8.63
2018-01-11T01:57:51.869Z,6.93
2018-01-11T02:00:19.462Z,7.97
2018-01-11T02:02:47.109Z,7.93
2018-01-11T02:05:14.700Z,7.10
2018-01-11T02:07:42.317Z,10.03
2018-01-11T02:10:09.911Z,7.20
2018-01-11T02:12:37.531Z,7.40
2018-01-11T02:15:05.132Z,7.57
2018-01-11T02:17:32.757Z,11.70
2018-01-11T02:20:00.341Z,7.73
2018-01-11T02:22:27.965Z,7.60
2018-01-11T02:24:55.541Z,7.50
2018-01-11T02:27:23.157Z,7.67
2018-01-11T02:29:50.746Z,7.17
2018-01-11T02:32:18.366Z,7.63
2018-01-11T02:34:45.948Z,7.43
2018-01-11T02:37:13.561Z,6.67
2018-01-11T02:39:41.143Z,8.00
2018-01-11T02:42:08.760Z,8.40
2018-01-11T02:44:36.352Z,7.53
2018-01-11T02:47:03.962Z,6.93
2018-01-11T02:49:31.562Z,8.83
2018-01-11T02:51:59.184Z,7.23
2018-01-11T02:54:26.765Z,6.40
2018-01-11T02:56:54.381Z,8.40
2018-01-11T02:59:21.959Z,8.23
2018-01-11T03:01:49.593Z,6.77
2018-01-11T03:04:17.170Z,6.87
2018-01-11T03:06:44.797Z,9.27
2018-01-11T03:09:12.398Z,7.47
2018-01-11T03:11:40.010Z,8.00
2018-01-11T03:14:07.626Z,7.33
2018-01-11T03:16:35.257Z,8.73
2018-01-11T03:19:02.850Z,10.40
2018-01-11T03:21:30.496Z,6.47
2018-01-11T03:23:58.075Z,7.33
2018-01-11T03:26:25.729Z,8.33
2018-01-11T03:28:53.337Z,7.30
2018-01-11T03:31:20.973Z,10.00
2018-01-11T03:33:48.573Z,7.40
2018-01-11T03:36:16.186Z,8.00
2018-01-11T03:38:43.774Z,8.47
2018-01-11T03:41:11.407Z,6.43
2018-01-11T03:43:38.994Z,9.80
2018-01-11T03:46:06.623Z,7.20
2018-01-11T03:48:34.230Z,8.03
2018-01-11T03:51:01.850Z,7.60
2018-01-11T03:53:29.438Z,8.60
2018-01-11T03:55:57.150Z,8.53
2018-01-11T03:58:24.751Z,8.53
2018-01-11T04:00:52.370Z,11.67
2018-01-11T04:03:19.962Z,9.13
2018-01-11T04:05:47.569Z,8.07
2018-01-11T04:08:15.194Z,10.13
2018-01-11T04:10:42.835Z,8.80
2018-01-11T04:13:10.434Z,9.70
2018-01-11T04:15:38.075Z,10.40
2018-01-11T04:18:05.707Z,8.47
2018-01-11T04:20:33.342Z,9.97
2018-01-11T04:23:01.081Z,10.07
2018-01-11T04:25:28.690Z,8.43
2018-01-11T04:27:56.272Z,8.00
2018-01-11T04:30:23.886Z,9.93
2018-01-11T04:32:51.476Z,9.37
2018-01-11T04:35:19.086Z,8.60
2018-01-11T04:37:46.688Z,15.23
2018-01-11T04:40:14.294Z,9.70
2018-01-11T04:42:41.934Z,11.30
2018-01-11T04:45:09.545Z,9.37
2018-01-11T04:47:37.141Z,11.80
2018-01-11T04:50:04.750Z,8.73
2018-01-11T04:52:32.343Z,9.33
2018-01-11T04:54:59.941Z,10.37
2018-01-11T04:57:27.554Z,9.40
2018-01-11T04:59:55.230Z,9.57
2018-01-11T05:02:22.839Z,9.33
2018-01-11T05:04:50.493Z,9.30
2018-01-11T05:07:18.149Z,15.00
2018-01-11T05:09:45.754Z,9.97
2018-01-11T05:12:13.369Z,19.37
2018-01-11T05:14:40.998Z,39.20
2018-01-11T05:17:08.606Z,78.57
2018-01-11T05:19:36.222Z,20.30
2018-01-11T05:22:03.812Z,13.70
2018-01-11T05:24:31.495Z,15.27
2018-01-11T05:26:59.091Z,13.20
2018-01-11T05:29:26.727Z,12.30
2018-01-11T05:31:54.326Z,13.63
2018-01-11T05:34:21.948Z,14.33
2018-01-11T05:36:49.543Z,11.83
2018-01-11T05:39:17.202Z,11.37
2018-01-11T05:41:44.827Z,10.07
2018-01-11T05:44:12.507Z,9.27
2018-01-11T05:46:40.119Z,10.20
2018-01-11T05:49:07.747Z,9.90
2018-01-11T05:51:35.341Z,9.87
2018-01-11T05:54:02.979Z,9.87
2018-01-11T05:56:31.329Z,9.57
2018-01-11T05:58:58.942Z,9.80
2018-01-11T06:01:26.561Z,10.33
2018-01-11T06:03:54.230Z,10.03
2018-01-11T06:06:21.860Z,10.47
2018-01-11T06:08:49.516Z,9.43
2018-01-11T06:11:17.137Z,12.97
2018-01-11T06:13:44.742Z,11.40
2018-01-11T06:16:12.370Z,9.93
2018-01-11T06:18:39.985Z,10.97
2018-01-11T06:21:07.586Z,9.57
2018-01-11T06:23:35.242Z,9.37
2018-01-11T06:26:02.836Z,11.63
2018-01-11T06:28:30.533Z,14.80
2018-01-11T06:30:58.126Z,15.00
2018-01-11T06:33:25.741Z,9.63
2018-01-11T06:35:53.326Z,9.50
2018-01-11T06:38:20.940Z,9.43
2018-01-11T06:40:48.550Z,11.47
2018-01-11T06:43:16.170Z,13.23
2018-01-11T06:45:43.771Z,11.10
2018-01-11T06:48:11.451Z,10.37
2018-01-11T06:50:39.070Z,10.20
2018-01-11T06:53:06.678Z,9.47
2018-01-11T06:55:34.262Z,9.53
2018-01-11T06:58:01.890Z,9.90
2018-01-11T07:00:29.482Z,10.70
2018-01-11T07:02:57.086Z,11.00
2018-01-11T07:05:24.671Z,11.30
2018-01-11T07:07:52.285Z,14.97
2018-01-11T07:10:19.893Z,11.30
2018-01-11T07:12:47.562Z,10.43
2018-01-11T07:15:15.157Z,8.97
2018-01-11T07:17:42.848Z,9.83
2018-01-11T07:20:10.438Z,10.37
2018-01-11T07:22:38.059Z,9.67
2018-01-11T07:25:05.658Z,12.00
2018-01-11T07:27:33.291Z,12.30
2018-01-11T07:30:00.883Z,9.37
2018-01-11T07:32:28.531Z,10.13
2018-01-11T07:34:56.243Z,10.50
2018-01-11T07:37:23.863Z,10.77
2018-01-11T07:39:51.449Z,14.83
2018-01-11T07:42:19.188Z,13.97
2018-01-11T07:44:46.773Z,21.37
2018-01-11T07:47:14.422Z,15.73
2018-01-11T07:49:42.038Z,15.40
2018-01-11T07:52:09.658Z,14.97
2018-01-11T07:54:37.254Z,11.70
2018-01-11T07:57:04.862Z,10.90
2018-01-11T07:59:32.466Z,11.30
2018-01-11T08:02:00.098Z,12.37
2018-01-11T08:04:27.702Z,11.43
2018-01-11T08:06:55.306Z,11.87
2018-01-11T08:09:22.911Z,11.17
2018-01-11T08:11:50.552Z,12.30
2018-01-11T08:14:18.137Z,9.77
2018-01-11T08:16:45.839Z,13.50
2018-01-11T08:19:13.439Z,12.33
2018-01-11T08:21:41.082Z,12.60
2018-01-11T08:24:08.748Z,12.40
2018-01-11T08:26:36.394Z,12.00
2018-01-11T08:29:04.021Z,12.57
2018-01-11T08:31:32.022Z,18.00
2018-01-11T08:33:59.689Z,12.80
2018-01-11T08:36:27.299Z,12.87
2018-01-11T08:38:54.970Z,14.77
2018-01-11T08:41:22.617Z,12.37
2018-01-11T08:43:50.259Z,13.47
2018-01-11T08:46:17.976Z,11.70
2018-01-11T08:48:45.601Z,11.43
2018-01-11T08:51:13.231Z,11.03
2018-01-11T08:53:40.926Z,12.50
2018-01-11T08:56:08.665Z,13.53
2018-01-11T08:58:36.358Z,11.07
2018-01-11T09:01:04.024Z,11.93
2018-01-11T09:03:31.638Z,11.20
2018-01-11T09:05:59.444Z,12.30
2018-01-11T09:08:27.081Z,13.43
2018-01-11T09:10:54.702Z,12.90
2018-01-11T09:13:22.299Z,12.60
2018-01-11T09:15:49.913Z,10.50
2018-01-11T09:18:17.531Z,11.73
2018-01-11T09:20:45.140Z,12.10
2018-01-11T09:23:12.750Z,13.13
2018-01-11T09:25:40.421Z,13.70
2018-01-11T09:28:08.030Z,12.53
2018-01-11T09:30:35.693Z,10.83
2018-01-11T09:33:03.295Z,11.57
2018-01-11T09:35:30.908Z,11.47
2018-01-11T09:37:58.502Z,14.47
2018-01-11T09:40:26.103Z,11.93
2018-01-11T09:42:53.689Z,14.63
2018-01-11T09:45:21.355Z,12.30
2018-01-11T09:47:48.954Z,13.90
2018-01-11T09:50:16.631Z,11.50
2018-01-11T09:52:44.202Z,13.33
2018-01-11T09:55:11.819Z,13.00
2018-01-11T09:57:39.415Z,16.20
2018-01-11T10:00:07.022Z,13.40
2018-01-11T10:02:34.644Z,14.90
2018-01-11T10:05:02.254Z,14.73
2018-01-11T10:07:29.856Z,13.87
2018-01-11T10:09:57.463Z,14.20
2018-01-11T10:12:25.074Z,15.90
2018-01-11T10:14:52.704Z,11.70
2018-01-11T10:17:20.291Z,13.10
2018-01-11T10:19:47.982Z,14.50
2018-01-11T10:22:15.567Z,12.50
2018-01-11T10:24:43.187Z,12.67
2018-01-11T10:27:10.775Z,13.10
2018-01-11T10:29:38.389Z,13.07
2018-01-11T10:32:06.074Z,14.33
2018-01-11T10:34:33.704Z,16.40
2018-01-11T10:37:01.299Z,12.37
2018-01-11T10:39:28.910Z,13.47
2018-01-11T10:41:56.511Z,15.57
2018-01-11T10:44:24.125Z,12.13
2018-01-11T10:46:51.834Z,11.27
2018-01-11T10:49:19.458Z,14.00
2018-01-11T10:51:47.053Z,12.27
2018-01-11T10:54:14.681Z,11.97
2018-01-11T10:56:42.266Z,12.10
2018-01-11T10:59:09.915Z,13.63
2018-01-11T11:01:43.113Z,12.67
2018-01-11T11:04:10.723Z,12.37
2018-01-11T11:06:38.298Z,10.77
2018-01-11T11:09:06.043Z,11.23
2018-01-11T11:11:33.632Z,11.53
2018-01-11T11:14:01.246Z,14.00
2018-01-11T11:16:28.829Z,10.93
2018-01-11T11:18:56.443Z,11.90
2018-01-11T11:21:24.036Z,11.90
2018-01-11T11:23:51.674Z,13.80
2018-01-11T11:26:19.273Z,14.17
2018-01-11T11:28:46.898Z,14.37
2018-01-11T11:31:14.489Z,14.30
2018-01-11T11:33:42.114Z,12.77
2018-01-11T11:36:09.718Z,38.53
2018-01-11T11:38:37.363Z,21.70
2018-01-11T11:41:04.957Z,11.33
2018-01-11T11:43:32.595Z,15.20
2018-01-11T11:46:00.218Z,9.97
2018-01-11T11:48:27.846Z,16.80
2018-01-11T11:50:55.450Z,13.50
2018-01-11T11:53:23.074Z,11.07
2018-01-11T11:55:50.693Z,12.57
2018-01-11T11:58:18.306Z,10.80
2018-01-11T12:00:45.912Z,12.83
2018-01-11T12:03:13.545Z,15.57
2018-01-11T12:05:41.138Z,13.63
2018-01-11T12:08:08.787Z,14.77
2018-01-11T12:10:36.430Z,14.50
2018-01-11T12:13:04.043Z,12.10
2018-01-11T12:15:31.675Z,13.87
2018-01-11T12:17:59.394Z,19.13
2018-01-11T12:20:27.016Z,15.67
2018-01-11T12:22:54.652Z,12.83
2018-01-11T12:25:22.260Z,17.37
2018-01-11T12:27:49.968Z,14.90
2018-01-11T12:30:17.752Z,16.03
2018-01-11T12:32:45.521Z,15.03
2018-01-11T12:35:13.855Z,13.63
2018-01-11T12:37:42.658Z,16.10
2018-01-11T12:42:45.977Z,13.10
2018-01-11T12:55:16.447Z,10.67
2018-01-11T12:57:44.207Z,16.50
2018-01-11T13:00:13.798Z,15.03
2018-01-11T13:02:41.653Z,14.60
2018-01-11T13:05:11.206Z,12.13
2018-01-11T13:07:38.825Z,12.17
2018-01-11T13:10:06.520Z,11.67
2018-01-11T13:12:34.289Z,15.63
2018-01-11T13:15:01.974Z,14.70
2018-01-11T13:17:29.600Z,16.20
2018-01-11T13:19:58.305Z,18.03
2018-01-11T13:22:28.395Z,19.00
2018-01-11T13:24:56.114Z,15.77
2018-01-11T13:27:23.754Z,16.10
2018-01-11T13:29:51.435Z,14.03
2018-01-11T13:32:19.054Z,17.73
2018-01-11T13:34:46.756Z,19.17
2018-01-11T13:37:14.407Z,17.13
2018-01-11T13:39:41.999Z,17.27
2018-01-11T13:42:09.728Z,22.03
2018-01-11T13:44:37.473Z,25.30
2018-01-11T13:47:05.128Z,18.17
2018-01-11T13:49:32.732Z,17.50
2018-01-11T13:52:00.382Z,15.53
2018-01-11T13:54:32.795Z,17.40
2018-01-11T13:57:00.420Z,16.77
2018-01-11T13:59:28.002Z,16.57
2018-01-11T14:01:55.657Z,14.27
2018-01-11T14:04:23.255Z,16.50
2018-01-11T14:06:50.878Z,15.20
2018-01-11T14:09:18.482Z,15.20
2018-01-11T14:11:46.107Z,17.37
2018-01-11T14:14:13.791Z,17.13
2018-01-11T14:16:41.419Z,16.40
2018-01-11T14:19:09.024Z,17.00
2018-01-11T14:21:36.657Z,17.13
2018-01-11T14:24:04.258Z,17.93
2018-01-11T14:26:31.878Z,17.77
2018-01-11T14:28:59.510Z,40.90
2018-01-11T14:31:27.113Z,17.23
2018-01-11T14:33:54.742Z,15.53
2018-01-11T14:36:22.362Z,14.40
2018-01-11T14:38:50.013Z,14.37
2018-01-11T14:41:17.699Z,14.80
2018-01-11T14:43:45.319Z,16.23
2018-01-11T14:46:12.924Z,22.47
2018-01-11T14:48:40.624Z,12.77
2018-01-11T14:51:08.229Z,19.03
2018-01-11T14:53:35.990Z,18.17
2018-01-11T14:56:03.593Z,15.33
2018-01-11T14:58:31.238Z,16.97
2018-01-11T15:00:58.882Z,16.80
2018-01-11T15:03:26.511Z,15.73
2018-01-11T15:05:54.095Z,17.50
2018-01-11T15:08:21.746Z,15.40
2018-01-11T15:10:49.341Z,15.17
2018-01-11T15:13:16.950Z,15.03
2018-01-11T15:15:44.578Z,21.27
2018-01-11T15:18:12.251Z,20.10
2018-01-11T15:20:39.895Z,18.40
2018-01-11T15:23:07.564Z,19.17
2018-01-11T15:25:35.270Z,20.43
2018-01-11T15:28:02.891Z,20.80
2018-01-11T15:30:30.488Z,21.03
2018-01-11T15:32:58.114Z,21.63
2018-01-11T15:35:25.740Z,23.07
2018-01-11T15:37:53.335Z,24.93
2018-01-11T15:40:20.983Z,15.43
2018-01-11T15:42:48.680Z,11.80
2018-01-11T15:45:16.344Z,17.20
2018-01-11T15:47:43.958Z,16.33
2018-01-11T15:50:11.709Z,16.23
2018-01-11T15:52:39.332Z,15.43
2018-01-11T15:55:07.130Z,17.10
2018-01-11T15:57:34.739Z,19.90
2018-01-11T16:00:02.422Z,14.17
2018-01-11T16:02:30.116Z,17.83
2018-01-11T16:04:57.746Z,17.93
2018-01-11T16:07:25.347Z,15.43
2018-01-11T16:09:54.671Z,18.87
2018-01-11T16:12:22.285Z,21.17
2018-01-11T16:14:49.946Z,17.27
2018-01-11T16:17:17.557Z,16.43
2018-01-11T16:19:45.199Z,21.97
2018-01-11T16:22:14.599Z,17.47
2018-01-11T16:24:42.206Z,21.73
2018-01-11T16:27:09.823Z,21.97
2018-01-11T16:29:37.523Z,23.13
2018-01-11T16:32:05.132Z,14.83
2018-01-11T16:34:32.758Z,19.77
2018-01-11T16:37:00.374Z,16.83
2018-01-11T16:39:28.142Z,17.03
2018-01-11T16:41:55.734Z,17.00
2018-01-11T16:44:23.399Z,18.33
2018-01-11T16:46:51.018Z,16.63
2018-01-11T16:49:18.669Z,31.63
2018-01-11T16:51:46.289Z,20.43
2018-01-11T16:54:13.951Z,16.77
2018-01-11T16:56:41.546Z,21.20
2018-01-11T16:59:09.198Z,22.87
2018-01-11T17:01:36.815Z,20.93
2018-01-11T17:04:04.514Z,21.40
2018-01-11T17:06:32.247Z,20.50
2018-01-11T17:08:59.914Z,17.97
2018-01-11T17:11:27.610Z,24.33
2018-01-11T17:13:55.254Z,26.53
2018-01-11T17:16:22.851Z,24.30
2018-01-11T17:18:50.497Z,22.23
2018-01-11T17:21:18.095Z,21.93
2018-01-11T17:23:45.841Z,19.20
2018-01-11T17:26:13.431Z,19.60
2018-01-11T17:28:41.082Z,29.83
2018-01-11T17:31:08.681Z,23.30
2018-01-11T17:33:36.306Z,27.13
2018-01-11T17:36:03.921Z,26.00
2018-01-11T17:38:31.562Z,28.87
2018-01-11T17:40:59.261Z,26.30
2018-01-11T17:43:26.886Z,25.20
2018-01-11T17:45:54.507Z,27.93
2018-01-11T17:48:22.196Z,24.63
2018-01-11T17:50:49.832Z,26.23
2018-01-11T17:53:17.451Z,21.23
2018-01-11T17:55:45.098Z,26.03
2018-01-11T17:58:12.736Z,30.97
2018-01-11T18:00:40.384Z,30.47
2018-01-11T18:03:08.047Z,30.67
2018-01-11T18:05:35.646Z,27.47
2018-01-11T18:08:03.277Z,28.60
2018-01-11T18:10:30.864Z,27.50
2018-01-11T18:12:58.535Z,29.43
2018-01-11T18:15:26.129Z,27.27
2018-01-11T18:17:53.773Z,25.23
2018-01-11T18:20:21.383Z,26.50
2018-01-11T18:22:49.011Z,32.40
2018-01-11T18:25:16.613Z,29.03
2018-01-11T18:27:44.279Z,29.30
2018-01-11T18:30:12.002Z,26.07
2018-01-11T18:32:39.590Z,36.50
2018-01-11T18:35:07.320Z,31.47
2018-01-11T18:37:34.929Z,33.83
2018-01-11T18:40:02.575Z,34.97
2018-01-11T18:42:30.189Z,30.90
2018-01-11T18:44:57.823Z,32.73
2018-01-11T18:47:25.427Z,32.50
2018-01-11T18:49:53.043Z,38.90
2018-01-11T18:52:20.762Z,30.50
2018-01-11T18:54:48.366Z,25.07
2018-01-11T18:57:16.028Z,26.30
2018-01-11T18:59:43.621Z,22.37
2018-01-11T19:02:11.262Z,25.10
2018-01-11T19:04:38.899Z,32.03
2018-01-11T19:07:07.394Z,30.63
2018-01-11T19:09:34.998Z,29.70
2018-01-11T19:12:02.715Z,35.20
2018-01-11T19:14:30.330Z,30.07
2018-01-11T19:16:57.969Z,28.60
2018-01-11T19:19:25.600Z,27.40
2018-01-11T19:21:53.345Z,30.40
2018-01-11T19:24:20.971Z,29.10
2018-01-11T19:26:48.743Z,34.00
2018-01-11T19:29:16.354Z,27.63
2018-01-11T19:31:43.997Z,27.90
2018-01-11T19:34:11.607Z,28.83
2018-01-11T19:36:39.246Z,30.63
2018-01-11T19:39:06.850Z,30.30
2018-01-11T19:41:34.480Z,26.87
2018-01-11T19:44:02.079Z,28.10
2018-01-11T19:46:29.739Z,63.87
2018-01-11T19:48:57.350Z,33.50
2018-01-11T19:51:24.985Z,30.53
2018-01-11T19:53:52.606Z,29.00
2018-01-11T19:56:20.248Z,36.60
2018-01-11T19:58:47.865Z,31.23
2018-01-11T20:01:15.551Z,32.60
2018-01-11T20:03:43.285Z,29.43
2018-01-11T20:06:10.928Z,29.50
2018-01-11T20:08:38.533Z,35.63
2018-01-11T20:11:06.178Z,33.47
2018-01-11T20:13:33.799Z,35.40
2018-01-11T20:16:01.438Z,37.20
2018-01-11T20:18:29.050Z,28.37
2018-01-11T20:20:56.714Z,38.57
2018-01-11T20:23:24.312Z,34.13
2018-01-11T20:25:51.946Z,28.57
2018-01-11T20:28:19.562Z,31.43
2018-01-11T20:30:47.196Z,29.70
2018-01-11T20:33:14.797Z,37.53
2018-01-11T20:35:42.435Z,29.93
2018-01-11T20:38:10.042Z,36.70
2018-01-11T20:40:37.755Z,34.60
2018-01-11T20:43:05.366Z,40.43
2018-01-11T20:45:32.978Z,33.10
2018-01-11T20:48:00.655Z,42.13
2018-01-11T20:50:28.291Z,34.87
2018-01-11T20:52:55.918Z,38.33
2018-01-11T20:55:23.542Z,35.83
2018-01-11T20:57:51.134Z,39.40
2018-01-11T21:00:18.782Z,35.77
2018-01-11T21:02:46.390Z,34.77
2018-01-11T21:05:14.022Z,30.30
2018-01-11T21:07:41.621Z,26.40
2018-01-11T21:10:09.266Z,22.33
2018-01-11T21:12:36.875Z,24.50
2018-01-11T21:15:04.527Z,28.47
2018-01-11T21:17:32.155Z,33.00
2018-01-11T21:19:59.903Z,30.20
2018-01-11T21:22:27.496Z,32.90
2018-01-11T21:24:55.432Z,27.07
2018-01-11T21:27:23.058Z,27.73
2018-01-11T21:29:50.694Z,34.37
2018-01-11T21:32:18.318Z,25.20
2018-01-11T21:34:45.947Z,27.00
2018-01-11T21:37:13.716Z,28.63
2018-01-11T21:39:41.351Z,32.00
2018-01-11T21:42:08.958Z,29.10
2018-01-11T21:44:36.614Z,36.77
2018-01-11T21:47:04.243Z,28.73
2018-01-11T21:49:31.865Z,33.03
2018-01-11T21:51:59.458Z,31.60
2018-01-11T21:54:27.099Z,33.20
2018-01-11T21:56:54.695Z,31.00
2018-01-11T21:59:22.318Z,34.77
2018-01-11T22:01:49.915Z,26.77
2018-01-11T22:04:17.641Z,33.03
2018-01-11T22:06:45.247Z,28.40
2018-01-11T22:09:12.866Z,30.83
2018-01-11T22:11:40.471Z,30.67
2018-01-11T22:14:08.065Z,28.50
2018-01-11T22:16:35.686Z,24.60
2018-01-11T22:19:03.324Z,28.73
2018-01-11T22:21:30.914Z,33.57
2018-01-11T22:23:58.539Z,31.27
2018-01-11T22:26:26.135Z,25.77
2018-01-11T22:28:53.775Z,31.80
2018-01-11T22:31:21.564Z,33.17
2018-01-11T22:33:49.161Z,24.53
2018-01-11T22:36:16.790Z,30.00
2018-01-11T22:38:44.431Z,30.17
2018-01-11T22:41:12.224Z,30.40
2018-01-11T22:43:39.867Z,30.23
2018-01-11T22:46:07.467Z,42.67
2018-01-11T22:48:35.101Z,34.47
2018-01-11T22:51:02.801Z,40.40
2018-01-11T22:53:30.432Z,28.93
2018-01-11T22:55:58.074Z,33.43
2018-01-11T22:58:25.709Z,33.53
2018-01-11T23:00:53.350Z,32.67
2018-01-11T23:03:21.056Z,30.90
2018-01-11T23:05:48.650Z,33.30
2018-01-11T23:08:16.288Z,36.50
2018-01-11T23:10:43.978Z,28.17
2018-01-11T23:13:11.616Z,32.60
2018-01-11T23:15:39.295Z,33.00
2018-01-11T23:18:06.927Z,34.00
2018-01-11T23:20:34.531Z,31.80
2018-01-11T23:23:02.166Z,32.10
2018-01-11T23:25:29.775Z,30.10
2018-01-11T23:27:57.491Z,33.07
2018-01-11T23:30:25.147Z,30.87
2018-01-11T23:32:52.850Z,36.13
2018-01-11T23:35:20.507Z,32.63
2018-01-11T23:37:48.168Z,34.90
2018-01-11T23:40:15.810Z,28.00
2018-01-11T23:42:43.450Z,38.27
2018-01-11T23:45:11.059Z,35.30
2018-01-11T23:47:38.776Z,31.90
2018-01-11T23:50:06.411Z,35.23
2018-01-11T23:52:34.114Z,33.00
2018-01-11T23:55:01.706Z,38.27
2018-01-11T23:57:29.346Z,30.30
2018-01-11T23:59:56.939Z,32.13
